AGGH/HIR METAR and TAF weather

Enter ICAO airport designator
Station Type Date Time Source
AGGH METAR 2018/12/12 17:00 UTC NOAA

AGGH 121700Z 14005KT 9999 FEW015 FEW016CB SCT100 25/25 Q1006


Station Type Date Time Source
AGGH Decoded METAR 2018/12/12 17:00 UTC NOAA

Honiara / Henderson, Solomon Islands (AGGH) 09-25S 160-03E 9M
Dec 12, 2018 - 12:00 PM EST / 2018.12.12 1700 UTC
Wind: from the SE (140 degrees) at 6 MPH (5 KT):0
Visibility: greater than 7 mile(s):0
Sky conditions: partly cloudy
Weather: Cumulonimbus clouds observed
Temperature: 77 F (25 C)
Dew Point: 77 F (25 C)
Relative Humidity: 100%
Pressure (altimeter): 29.71 in. Hg (1006 hPa)
ob: AGGH 121700Z 14005KT 9999 FEW015 FEW016CB SCT100 25/25 Q1006
cycle: 17

Station Type Date Time Source
AGGH TAF 2018/12/12 18:13 UTC NOAA

TAF AGGH 121710Z 1218/1318 36007KT 9999 FEW018 PROB40 INTER 1318/1306 5000 TSSH BKN017 FEW018CB T 25 28 31 32 Q 1006 1008 1008 1006


Example: see airport list